createdAt,value
2023-01-09T00:00:47.074Z,99.00
2023-01-09T00:03:13.868Z,99.00
2023-01-09T00:05:40.707Z,98.90
2023-01-09T00:08:07.821Z,99.00
2023-01-09T00:10:34.627Z,99.10
2023-01-09T00:13:01.489Z,99.10
2023-01-09T00:15:28.230Z,99.10
2023-01-09T00:17:54.940Z,99.10
2023-01-09T00:20:21.821Z,99.20
2023-01-09T00:22:48.604Z,99.10
2023-01-09T00:25:15.392Z,99.10
2023-01-09T00:27:42.182Z,99.20
2023-01-09T00:30:09.555Z,99.30
2023-01-09T00:32:36.301Z,99.30
2023-01-09T00:35:03.174Z,99.20
2023-01-09T00:37:29.909Z,99.50
2023-01-09T00:39:56.655Z,99.30
2023-01-09T00:42:25.057Z,99.20
2023-01-09T00:44:54.163Z,99.30
2023-01-09T00:47:23.179Z,99.20
2023-01-09T00:49:50.452Z,99.20
2023-01-09T00:52:17.423Z,99.20
2023-01-09T00:54:44.989Z,99.20
2023-01-09T00:57:12.998Z,99.20
2023-01-09T00:59:40.439Z,99.20
2023-01-09T01:02:07.407Z,99.20
2023-01-09T01:04:53.074Z,99.30
2023-01-09T01:07:38.181Z,99.30
2023-01-09T01:10:10.521Z,99.30
2023-01-09T01:12:37.837Z,99.40
2023-01-09T01:15:05.336Z,99.40
2023-01-09T01:17:34.119Z,99.30
2023-01-09T01:20:00.831Z,99.30
2023-01-09T01:22:27.538Z,99.30
2023-01-09T01:24:54.333Z,99.30
2023-01-09T01:27:21.118Z,99.30
2023-01-09T01:29:47.814Z,99.30
2023-01-09T01:32:14.706Z,99.40
2023-01-09T01:34:41.468Z,99.40
2023-01-09T01:37:08.188Z,99.40
2023-01-09T01:39:35.017Z,99.30
2023-01-09T01:42:03.214Z,99.20
2023-01-09T01:44:48.774Z,99.30
2023-01-09T01:47:16.711Z,99.30
2023-01-09T01:49:43.513Z,99.30
2023-01-09T01:52:10.336Z,99.40
2023-01-09T01:54:37.082Z,99.40
2023-01-09T01:57:04.512Z,99.40
2023-01-09T01:59:40.027Z,99.40
2023-01-09T02:02:07.838Z,99.40
2023-01-09T02:04:35.517Z,99.40
2023-01-09T02:07:05.113Z,99.20
2023-01-09T02:09:31.944Z,99.30
2023-01-09T02:12:00.411Z,99.20
2023-01-09T02:14:31.955Z,99.30
2023-01-09T02:17:20.091Z,99.40
2023-01-09T02:20:06.768Z,99.40
2023-01-09T02:22:53.737Z,99.40
2023-01-09T02:25:32.388Z,99.40
2023-01-09T02:28:15.746Z,99.30
2023-01-09T02:31:21.117Z,99.30
2023-01-09T02:34:00.554Z,99.30
2023-01-09T02:36:31.458Z,99.40
2023-01-09T02:38:58.341Z,99.40
2023-01-09T02:41:33.221Z,99.30
2023-01-09T02:44:18.188Z,99.30
2023-01-09T02:46:44.946Z,99.30
2023-01-09T02:49:12.209Z,99.20
2023-01-09T02:51:52.745Z,99.40
2023-01-09T02:54:38.080Z,99.30
2023-01-09T02:57:23.408Z,99.40
2023-01-09T02:59:54.010Z,99.40
2023-01-09T03:02:39.631Z,99.40
2023-01-09T03:05:09.419Z,99.50
2023-01-09T03:07:45.795Z,99.40
2023-01-09T03:10:16.252Z,99.40
2023-01-09T03:12:43.347Z,99.40
2023-01-09T03:15:12.614Z,99.40
2023-01-09T03:17:41.104Z,99.30
2023-01-09T03:20:09.252Z,99.40
2023-01-09T03:22:36.062Z,99.30
2023-01-09T03:25:02.835Z,99.20
2023-01-09T03:27:29.748Z,99.30
2023-01-09T03:29:56.811Z,99.30
2023-01-09T03:32:23.650Z,99.40
2023-01-09T03:34:50.385Z,99.40
2023-01-09T03:37:17.144Z,99.30
2023-01-09T03:39:43.863Z,99.30
2023-01-09T03:42:10.625Z,99.30
2023-01-09T03:44:37.469Z,99.30
2023-01-09T03:47:04.230Z,99.40
2023-01-09T03:49:30.967Z,99.30
2023-01-09T03:51:57.921Z,99.30
2023-01-09T03:54:24.666Z,99.30
2023-01-09T03:56:51.390Z,99.30
2023-01-09T03:59:18.760Z,99.40
2023-01-09T04:01:45.609Z,99.40
2023-01-09T04:04:12.439Z,99.30
2023-01-09T04:06:39.376Z,99.30
2023-01-09T04:09:06.122Z,99.30
2023-01-09T04:11:32.866Z,99.30
2023-01-09T04:13:59.634Z,99.40
2023-01-09T04:16:26.404Z,99.30
2023-01-09T04:18:53.167Z,99.20
2023-01-09T04:21:19.987Z,99.30
2023-01-09T04:23:46.745Z,99.30
2023-01-09T04:26:13.491Z,99.30
2023-01-09T04:28:40.330Z,99.30
2023-01-09T04:31:07.034Z,99.30
2023-01-09T04:33:34.614Z,99.40
2023-01-09T04:36:01.446Z,99.30
2023-01-09T04:38:28.264Z,99.40
2023-01-09T04:40:54.949Z,99.40
2023-01-09T04:43:21.740Z,99.30
2023-01-09T04:45:48.510Z,99.30
2023-01-09T04:48:15.326Z,99.30
2023-01-09T04:50:42.200Z,99.30
2023-01-09T04:53:08.936Z,99.40
2023-01-09T04:55:35.840Z,99.30
2023-01-09T04:58:02.676Z,99.40
2023-01-09T05:00:29.486Z,99.40
2023-01-09T05:02:57.104Z,99.40
2023-01-09T05:05:24.083Z,99.30
2023-01-09T05:07:50.883Z,99.30
2023-01-09T05:10:17.679Z,99.30
2023-01-09T05:12:44.479Z,99.30
2023-01-09T05:15:11.443Z,99.30
2023-01-09T05:17:38.210Z,99.30
2023-01-09T05:20:05.132Z,99.30
2023-01-09T05:22:31.864Z,99.30
2023-01-09T05:25:00.352Z,99.40
2023-01-09T05:27:27.473Z,99.30
2023-01-09T05:29:54.242Z,99.30
2023-01-09T05:32:20.969Z,99.30
2023-01-09T05:34:47.732Z,99.30
2023-01-09T05:37:14.457Z,99.20
2023-01-09T05:39:41.202Z,99.20
2023-01-09T05:42:08.094Z,99.20
2023-01-09T05:44:34.841Z,99.30
2023-01-09T05:47:02.929Z,99.40
2023-01-09T05:49:29.919Z,99.40
2023-01-09T05:51:56.636Z,99.30
2023-01-09T05:54:23.422Z,99.40
2023-01-09T05:56:57.654Z,99.30
2023-01-09T05:59:35.352Z,99.40
2023-01-09T06:02:02.260Z,99.30
2023-01-09T06:04:30.023Z,99.40
2023-01-09T06:06:56.907Z,99.30
2023-01-09T06:09:23.695Z,99.20
2023-01-09T06:11:50.510Z,99.30
2023-01-09T06:14:17.256Z,99.30
2023-01-09T06:16:44.026Z,99.30
2023-01-09T06:19:10.780Z,99.40
2023-01-09T06:21:37.515Z,99.40
2023-01-09T06:24:04.437Z,99.30
2023-01-09T06:26:31.265Z,99.40
2023-01-09T06:28:57.998Z,99.40
2023-01-09T06:31:25.169Z,99.40
2023-01-09T06:33:52.221Z,99.50
2023-01-09T06:36:20.949Z,99.40
2023-01-09T06:38:49.097Z,99.40
2023-01-09T06:41:15.805Z,99.40
2023-01-09T06:43:42.621Z,99.30
2023-01-09T06:46:09.822Z,99.30
2023-01-09T06:48:36.600Z,99.40
2023-01-09T06:51:03.533Z,99.30
2023-01-09T06:53:30.347Z,99.20
2023-01-09T06:55:57.066Z,99.10
2023-01-09T06:58:23.758Z,99.30
2023-01-09T07:00:50.572Z,99.30
2023-01-09T07:03:19.965Z,99.30
2023-01-09T07:05:47.393Z,99.30
2023-01-09T07:08:15.130Z,99.20
2023-01-09T07:10:42.382Z,99.30
2023-01-09T07:13:09.191Z,99.30
2023-01-09T07:15:36.299Z,99.30
2023-01-09T07:18:03.295Z,99.40
2023-01-09T07:20:30.428Z,99.40
2023-01-09T07:22:57.504Z,99.40
2023-01-09T07:25:24.324Z,99.40
2023-01-09T07:27:51.078Z,99.40
2023-01-09T07:30:18.036Z,99.40
2023-01-09T07:32:44.755Z,99.40
2023-01-09T07:35:11.503Z,99.40
2023-01-09T07:37:38.395Z,99.30
2023-01-09T07:40:05.537Z,99.30
2023-01-09T07:42:32.614Z,99.40
2023-01-09T07:44:59.469Z,99.30
2023-01-09T07:47:26.275Z,99.40
2023-01-09T07:49:53.088Z,99.40
2023-01-09T07:52:19.935Z,99.40
2023-01-09T07:54:46.661Z,99.40
2023-01-09T07:57:13.365Z,99.40
2023-01-09T07:59:40.158Z,99.50
2023-01-09T08:02:07.337Z,99.30
2023-01-09T08:04:34.209Z,99.30
2023-01-09T08:07:03.212Z,99.40
2023-01-09T08:09:30.175Z,99.30
2023-01-09T08:11:57.736Z,99.40
2023-01-09T08:14:24.679Z,99.40
2023-01-09T08:16:51.384Z,99.30
2023-01-09T08:19:18.116Z,99.40
2023-01-09T08:21:44.886Z,99.30
2023-01-09T08:24:11.668Z,99.40
2023-01-09T08:26:38.464Z,99.20
2023-01-09T08:29:06.622Z,99.60
2023-01-09T08:31:33.462Z,99.30
2023-01-09T08:34:00.489Z,99.40
2023-01-09T08:36:27.246Z,99.30
2023-01-09T08:38:54.138Z,99.20
2023-01-09T08:41:39.526Z,99.30
2023-01-09T08:44:24.603Z,99.30
2023-01-09T08:47:06.616Z,99.30
2023-01-09T08:49:34.231Z,99.30
2023-01-09T08:52:01.092Z,99.20
2023-01-09T08:54:28.200Z,99.20
2023-01-09T08:56:57.171Z,99.20
2023-01-09T08:59:23.982Z,99.30
2023-01-09T09:01:50.755Z,99.30
2023-01-09T09:04:17.626Z,99.30
2023-01-09T09:06:44.365Z,99.20
2023-01-09T09:09:11.503Z,99.20
2023-01-09T09:11:38.271Z,99.30
2023-01-09T09:14:25.653Z,99.30
2023-01-09T09:16:53.008Z,99.20
2023-01-09T09:19:19.747Z,99.40
2023-01-09T09:21:46.630Z,99.40
2023-01-09T09:24:13.443Z,99.40
2023-01-09T09:26:40.210Z,99.40
2023-01-09T09:29:07.285Z,99.40
2023-01-09T09:31:34.160Z,99.40
2023-01-09T09:34:01.156Z,99.30
2023-01-09T09:36:28.835Z,99.20
2023-01-09T09:38:55.619Z,99.30
2023-01-09T09:41:50.049Z,99.30
2023-01-09T09:44:48.441Z,99.30
2023-01-09T09:47:31.968Z,99.30
2023-01-09T09:50:01.724Z,99.20
2023-01-09T09:52:47.049Z,99.20
2023-01-09T09:55:18.966Z,99.20
2023-01-09T09:57:46.849Z,99.20
2023-01-09T10:00:18.199Z,99.20
2023-01-09T10:02:45.713Z,99.20
2023-01-09T10:05:15.547Z,99.20
2023-01-09T10:07:46.643Z,99.30
2023-01-09T10:10:16.716Z,99.30
2023-01-09T10:12:52.239Z,99.30
2023-01-09T10:15:26.376Z,99.30
2023-01-09T10:18:02.305Z,99.20
2023-01-09T10:20:35.053Z,99.30
2023-01-09T10:23:01.769Z,99.30
2023-01-09T10:25:45.059Z,99.20
2023-01-09T10:28:14.724Z,99.20
2023-01-09T10:30:46.962Z,99.20
2023-01-09T10:33:32.147Z,99.30
2023-01-09T10:36:19.404Z,99.30
2023-01-09T10:38:47.740Z,99.30
2023-01-09T10:41:33.320Z,99.40
2023-01-09T10:44:06.396Z,99.30
2023-01-09T10:46:37.860Z,99.20
2023-01-09T10:49:09.301Z,99.30
2023-01-09T10:51:49.585Z,99.40
2023-01-09T10:54:18.964Z,99.20
2023-01-09T10:56:54.458Z,99.30
2023-01-09T10:59:21.474Z,99.20
2023-01-09T11:01:48.304Z,99.30
2023-01-09T11:04:18.129Z,99.30
2023-01-09T11:06:47.706Z,99.30
2023-01-09T11:09:16.504Z,99.30
2023-01-09T11:11:44.297Z,99.20
2023-01-09T11:14:20.245Z,99.20
2023-01-09T11:17:03.967Z,99.10
2023-01-09T11:19:33.098Z,99.10
2023-01-09T11:22:14.593Z,99.10
2023-01-09T11:24:41.371Z,99.10
2023-01-09T11:27:23.518Z,99.10
2023-01-09T11:30:14.665Z,99.10
2023-01-09T11:32:42.101Z,99.10
2023-01-09T11:35:17.130Z,99.10
2023-01-09T11:37:44.862Z,99.10
2023-01-09T11:40:20.196Z,99.10
2023-01-09T11:43:04.280Z,99.10
2023-01-09T11:45:32.137Z,99.20
2023-01-09T11:47:58.967Z,99.10
2023-01-09T11:50:29.333Z,99.10
2023-01-09T11:53:16.152Z,99.10
2023-01-09T11:55:43.615Z,99.20
2023-01-09T11:58:21.702Z,99.00
2023-01-09T12:00:48.460Z,99.10
2023-01-09T12:03:30.428Z,99.00
2023-01-09T12:06:23.138Z,99.10
2023-01-09T12:08:52.717Z,99.10
2023-01-09T12:11:45.702Z,98.80
2023-01-09T12:14:15.212Z,98.60
2023-01-09T12:16:51.055Z,98.70
2023-01-09T12:19:34.463Z,98.60
2023-01-09T12:22:06.819Z,98.30
2023-01-09T12:24:39.559Z,98.60
2023-01-09T12:27:06.559Z,99.00
2023-01-09T12:29:37.888Z,98.90
2023-01-09T12:32:04.683Z,99.20
2023-01-09T12:34:34.535Z,98.70
2023-01-09T12:37:20.351Z,99.00
2023-01-09T12:39:53.355Z,98.80
2023-01-09T12:42:28.996Z,98.80
2023-01-09T12:45:01.794Z,98.80
2023-01-09T12:47:28.520Z,98.80
2023-01-09T12:50:04.157Z,99.10
2023-01-09T12:52:37.021Z,98.90
2023-01-09T12:55:13.184Z,98.70
2023-01-09T12:57:42.205Z,98.70
2023-01-09T13:00:19.149Z,99.00
2023-01-09T13:02:47.625Z,99.00
2023-01-09T13:05:49.630Z,99.10
2023-01-09T13:08:36.662Z,98.80
2023-01-09T13:11:20.365Z,99.00
2023-01-09T13:13:50.798Z,98.90
2023-01-09T13:16:20.661Z,98.80
2023-01-09T13:18:51.283Z,98.60
2023-01-09T13:21:18.873Z,98.30
2023-01-09T13:23:51.364Z,98.30
2023-01-09T13:26:36.610Z,98.20
2023-01-09T13:29:16.281Z,98.40
2023-01-09T13:31:43.176Z,98.30
2023-01-09T13:34:22.566Z,98.50
2023-01-09T13:36:51.165Z,98.60
2023-01-09T13:39:35.485Z,98.50
2023-01-09T13:42:21.853Z,98.50
2023-01-09T13:44:50.058Z,98.50
2023-01-09T13:47:17.312Z,98.40
2023-01-09T13:49:44.162Z,98.40
2023-01-09T13:52:25.974Z,98.70
2023-01-09T13:54:55.893Z,98.50
2023-01-09T13:57:26.559Z,98.40
2023-01-09T13:59:53.311Z,98.40
2023-01-09T14:02:35.206Z,98.40
2023-01-09T14:05:09.205Z,98.50
2023-01-09T14:07:47.456Z,98.50
2023-01-09T14:10:37.237Z,98.50
2023-01-09T14:13:24.135Z,98.60
2023-01-09T14:15:51.722Z,98.60
2023-01-09T14:18:24.399Z,98.60
2023-01-09T14:20:56.146Z,98.60
2023-01-09T14:23:39.042Z,98.60
2023-01-09T14:26:16.869Z,98.60
2023-01-09T14:28:43.947Z,98.60
2023-01-09T14:31:10.944Z,98.60
2023-01-09T14:33:38.024Z,98.70
2023-01-09T14:36:04.775Z,98.60
2023-01-09T14:38:48.342Z,98.60
2023-01-09T14:41:17.988Z,98.60
2023-01-09T14:43:45.377Z,98.60
2023-01-09T14:46:14.630Z,98.60
2023-01-09T14:48:45.931Z,98.50
2023-01-09T14:51:16.245Z,98.50
2023-01-09T14:53:43.443Z,98.40
2023-01-09T14:56:24.277Z,98.50
2023-01-09T14:59:02.659Z,98.50
2023-01-09T15:01:32.582Z,98.60
2023-01-09T15:04:02.545Z,98.40
2023-01-09T15:06:30.984Z,98.50
2023-01-09T15:09:02.958Z,98.40
2023-01-09T15:11:31.241Z,98.30
2023-01-09T15:14:00.230Z,98.40
2023-01-09T15:16:27.608Z,98.40
2023-01-09T15:19:02.185Z,98.30
2023-01-09T15:21:33.454Z,98.30
2023-01-09T15:24:18.828Z,98.40
2023-01-09T15:26:51.497Z,98.40
2023-01-09T15:29:18.220Z,98.50
2023-01-09T15:31:46.614Z,98.40
2023-01-09T15:34:19.180Z,98.40
2023-01-09T15:36:49.103Z,98.40
2023-01-09T15:39:21.981Z,98.30
2023-01-09T15:42:06.903Z,98.50
2023-01-09T15:44:37.359Z,98.40
2023-01-09T15:47:05.866Z,98.30
2023-01-09T15:49:33.961Z,98.40
2023-01-09T15:52:02.015Z,98.50
2023-01-09T15:54:30.385Z,98.60
2023-01-09T15:57:15.833Z,98.40
2023-01-09T15:59:44.466Z,98.40
2023-01-09T16:02:32.182Z,98.40
2023-01-09T16:04:58.968Z,98.50
2023-01-09T16:07:25.703Z,98.50
2023-01-09T16:09:52.846Z,98.50
2023-01-09T16:12:24.766Z,98.50
2023-01-09T16:14:55.937Z,98.50
2023-01-09T16:17:26.695Z,98.60
2023-01-09T16:19:55.001Z,98.60
2023-01-09T16:22:31.723Z,98.60
2023-01-09T16:24:59.706Z,98.50
2023-01-09T16:27:29.947Z,98.50
2023-01-09T16:29:59.559Z,98.40
2023-01-09T16:32:28.102Z,98.50
2023-01-09T16:34:55.958Z,98.40
2023-01-09T16:37:23.824Z,98.40
2023-01-09T16:40:10.467Z,98.50
2023-01-09T16:42:56.041Z,98.60
2023-01-09T16:45:24.740Z,98.50
2023-01-09T16:47:51.641Z,98.50
2023-01-09T16:50:18.467Z,98.50
2023-01-09T16:52:47.191Z,98.50
2023-01-09T16:55:14.368Z,98.50
2023-01-09T16:57:41.863Z,98.60
2023-01-09T17:00:15.785Z,98.60
2023-01-09T17:02:42.671Z,98.60
2023-01-09T17:05:09.666Z,98.70
2023-01-09T17:07:37.881Z,98.70
2023-01-09T17:10:05.821Z,98.70
2023-01-09T17:12:32.566Z,98.60
2023-01-09T17:15:01.395Z,98.60
2023-01-09T17:17:28.327Z,98.60
2023-01-09T17:19:55.172Z,98.60
2023-01-09T17:22:22.484Z,98.60
2023-01-09T17:25:09.021Z,98.70
2023-01-09T17:27:55.853Z,98.60
2023-01-09T17:30:22.877Z,98.60
2023-01-09T17:32:49.864Z,98.70
2023-01-09T17:35:16.974Z,98.60
2023-01-09T17:37:43.999Z,98.70
2023-01-09T17:40:16.984Z,98.70
2023-01-09T17:42:43.740Z,98.70
2023-01-09T17:45:10.877Z,98.60
2023-01-09T17:47:37.641Z,98.70
2023-01-09T17:50:04.871Z,98.80
2023-01-09T17:52:33.130Z,98.70
2023-01-09T17:55:05.521Z,98.70
2023-01-09T17:57:32.999Z,98.70
2023-01-09T18:00:00.190Z,98.70
2023-01-09T18:02:27.557Z,98.70
2023-01-09T18:04:54.763Z,98.60
2023-01-09T18:07:22.122Z,98.70
2023-01-09T18:09:48.903Z,98.80
2023-01-09T18:12:15.821Z,98.70
2023-01-09T18:14:42.783Z,98.70
2023-01-09T18:17:11.795Z,98.80
2023-01-09T18:19:39.070Z,98.80
2023-01-09T18:22:06.557Z,98.70
2023-01-09T18:24:33.468Z,98.70
2023-01-09T18:27:00.300Z,98.70
2023-01-09T18:29:27.209Z,98.70
2023-01-09T18:31:54.093Z,98.70
2023-01-09T18:34:21.443Z,98.80
2023-01-09T18:36:48.656Z,98.80
2023-01-09T18:39:15.900Z,98.70
2023-01-09T18:41:43.291Z,98.80
2023-01-09T18:44:10.578Z,98.70
2023-01-09T18:46:38.689Z,98.70
2023-01-09T18:49:05.727Z,98.70
2023-01-09T18:51:34.475Z,98.70
2023-01-09T18:54:01.804Z,98.70
2023-01-09T18:56:28.870Z,98.70
2023-01-09T18:58:57.844Z,98.70
2023-01-09T19:01:25.733Z,98.60
2023-01-09T19:03:53.486Z,98.60
2023-01-09T19:06:20.760Z,98.60
2023-01-09T19:08:47.948Z,98.70
2023-01-09T19:11:15.059Z,98.60
2023-01-09T19:13:42.409Z,98.60
2023-01-09T19:16:09.435Z,98.60
2023-01-09T19:18:40.536Z,98.50
2023-01-09T19:21:15.124Z,98.50
2023-01-09T19:23:42.516Z,98.60
2023-01-09T19:26:15.187Z,98.70
2023-01-09T19:28:45.169Z,98.60
2023-01-09T19:31:12.395Z,98.60
2023-01-09T19:33:39.408Z,98.60
2023-01-09T19:36:06.445Z,98.60
2023-01-09T19:38:33.219Z,98.60
2023-01-09T19:41:09.237Z,98.60
2023-01-09T19:43:36.652Z,98.60
2023-01-09T19:46:06.591Z,98.60
2023-01-09T19:48:33.375Z,98.60
2023-01-09T19:51:01.532Z,98.60
2023-01-09T19:53:30.189Z,98.70
2023-01-09T19:56:26.177Z,98.60
2023-01-09T19:58:53.989Z,98.70
2023-01-09T20:01:25.061Z,98.70
2023-01-09T20:03:52.744Z,98.60
2023-01-09T20:06:24.236Z,98.60
2023-01-09T20:08:53.788Z,98.70
2023-01-09T20:11:21.146Z,98.70
2023-01-09T20:13:48.011Z,98.60
2023-01-09T20:16:22.064Z,98.70
2023-01-09T20:18:48.946Z,98.70
2023-01-09T20:21:18.834Z,98.70
2023-01-09T20:23:45.735Z,98.70
2023-01-09T20:26:12.515Z,98.70
2023-01-09T20:28:39.296Z,98.70
2023-01-09T20:31:09.115Z,98.70
2023-01-09T20:33:36.664Z,98.60
2023-01-09T20:36:04.825Z,98.60
2023-01-09T20:38:32.358Z,98.70
2023-01-09T20:41:05.957Z,98.70
2023-01-09T20:43:32.730Z,98.70
2023-01-09T20:46:03.680Z,98.70
2023-01-09T20:48:30.531Z,98.50
2023-01-09T20:51:03.251Z,98.50
2023-01-09T20:53:30.167Z,98.50
2023-01-09T20:56:07.695Z,98.50
2023-01-09T20:58:34.518Z,98.60
2023-01-09T21:01:08.655Z,98.60
2023-01-09T21:03:35.696Z,98.60
2023-01-09T21:06:06.734Z,98.60
2023-01-09T21:08:33.780Z,98.60
2023-01-09T21:11:01.120Z,98.60
2023-01-09T21:13:28.200Z,98.60
2023-01-09T21:16:00.044Z,98.50
2023-01-09T21:18:26.929Z,98.50
2023-01-09T21:20:53.845Z,98.50
2023-01-09T21:23:20.807Z,98.50
2023-01-09T21:25:49.015Z,98.50
2023-01-09T21:28:18.602Z,98.60
2023-01-09T21:30:49.601Z,98.60
2023-01-09T21:33:20.240Z,98.70
2023-01-09T21:35:53.831Z,98.60
2023-01-09T21:38:20.668Z,98.60
2023-01-09T21:40:51.437Z,98.70
2023-01-09T21:43:46.985Z,98.70
2023-01-09T21:46:33.143Z,98.70
2023-01-09T21:48:59.953Z,98.70
2023-01-09T21:51:26.734Z,98.60
2023-01-09T21:53:53.510Z,98.50
2023-01-09T21:56:20.746Z,98.60
2023-01-09T21:58:47.620Z,98.60
2023-01-09T22:01:14.393Z,98.60
2023-01-09T22:03:41.183Z,98.60
2023-01-09T22:06:08.098Z,98.60
2023-01-09T22:08:35.024Z,98.60
2023-01-09T22:11:02.148Z,98.60
2023-01-09T22:13:28.886Z,98.60
2023-01-09T22:15:59.110Z,98.60
2023-01-09T22:18:25.887Z,98.60
2023-01-09T22:20:52.648Z,98.60
2023-01-09T22:23:19.439Z,98.50
2023-01-09T22:25:46.257Z,98.50
2023-01-09T22:28:13.079Z,98.60
2023-01-09T22:30:40.584Z,98.60
2023-01-09T22:33:07.944Z,98.70
2023-01-09T22:35:34.678Z,98.70
2023-01-09T22:38:01.727Z,98.90
2023-01-09T22:40:28.648Z,98.60
2023-01-09T22:42:55.383Z,98.50
2023-01-09T22:45:22.174Z,98.50
2023-01-09T22:47:49.056Z,98.50
2023-01-09T22:50:16.163Z,98.50
2023-01-09T22:52:43.182Z,98.50
2023-01-09T22:55:10.417Z,98.50
2023-01-09T22:57:37.209Z,98.60
2023-01-09T23:00:04.241Z,98.50
2023-01-09T23:02:31.138Z,98.40
2023-01-09T23:04:58.440Z,98.50
2023-01-09T23:07:25.205Z,98.50
2023-01-09T23:09:52.229Z,98.60
2023-01-09T23:12:18.939Z,98.60
2023-01-09T23:14:46.129Z,98.60
2023-01-09T23:17:12.961Z,98.50
2023-01-09T23:19:40.501Z,98.40
2023-01-09T23:22:07.435Z,98.40
2023-01-09T23:24:34.325Z,98.40
2023-01-09T23:27:01.101Z,98.50
2023-01-09T23:29:27.925Z,98.50
2023-01-09T23:31:54.935Z,98.50
2023-01-09T23:34:24.130Z,98.50
2023-01-09T23:36:51.408Z,98.50
2023-01-09T23:39:18.307Z,98.50
2023-01-09T23:42:03.654Z,98.50
2023-01-09T23:44:30.627Z,98.60
2023-01-09T23:46:57.476Z,98.50
2023-01-09T23:49:24.342Z,98.50
2023-01-09T23:51:51.220Z,98.50
2023-01-09T23:54:17.959Z,98.50
2023-01-09T23:56:44.916Z,98.50
2023-01-09T23:59:12.347Z,98.50
